createdAt,value
2019-02-28T00:00:59.168Z,10.97
2019-02-28T00:03:32.689Z,11.03
2019-02-28T00:06:05.863Z,11.97
2019-02-28T00:08:39.564Z,15.87
2019-02-28T00:11:12.241Z,14.80
2019-02-28T00:13:44.734Z,10.52
2019-02-28T00:16:17.583Z,11.73
2019-02-28T00:18:50.622Z,12.83
2019-02-28T00:21:23.350Z,12.83
2019-02-28T00:23:57.480Z,10.10
2019-02-28T00:26:31.092Z,16.47
2019-02-28T00:29:04.330Z,11.53
2019-02-28T00:31:37.359Z,14.57
2019-02-28T00:34:11.252Z,15.40
2019-02-28T00:36:44.005Z,16.23
2019-02-28T00:39:16.884Z,11.77
2019-02-28T00:41:50.328Z,13.77
2019-02-28T00:44:22.866Z,14.33
2019-02-28T00:46:56.870Z,13.03
2019-02-28T00:49:29.406Z,15.70
2019-02-28T00:52:07.597Z,14.85
2019-02-28T00:54:45.796Z,13.43
2019-02-28T00:57:18.858Z,17.42
2019-02-28T00:59:53.738Z,17.30
2019-02-28T01:02:26.833Z,14.73
2019-02-28T01:05:01.305Z,18.90
2019-02-28T01:07:37.375Z,14.00
2019-02-28T01:10:12.098Z,20.92
2019-02-28T01:12:44.570Z,25.40
2019-02-28T01:15:16.043Z,11.83
2019-02-28T01:18:00.405Z,15.23
2019-02-28T01:20:39.061Z,21.93
2019-02-28T01:23:41.974Z,15.10
2019-02-28T01:26:16.371Z,16.03
2019-02-28T01:28:50.418Z,28.10
2019-02-28T01:31:25.405Z,25.97
2019-02-28T01:33:59.378Z,22.67
2019-02-28T01:36:31.922Z,14.73
2019-02-28T01:39:08.426Z,13.00
2019-02-28T01:41:42.270Z,19.27
2019-02-28T01:44:17.678Z,19.67
2019-02-28T01:46:51.215Z,17.48
2019-02-28T01:49:26.872Z,18.93
2019-02-28T01:51:59.655Z,17.93
2019-02-28T01:54:33.122Z,17.73
2019-02-28T01:57:08.999Z,16.87
2019-02-28T01:59:42.741Z,19.87
2019-02-28T02:02:15.697Z,23.03
2019-02-28T02:04:48.806Z,47.17
2019-02-28T02:07:22.031Z,32.83
2019-02-28T02:09:55.138Z,33.30
2019-02-28T02:12:31.276Z,47.60
2019-02-28T02:15:10.123Z,25.33
2019-02-28T02:17:46.000Z,24.87
2019-02-28T02:20:19.010Z,32.50
2019-02-28T02:22:52.994Z,27.93
2019-02-28T02:25:25.598Z,28.10
2019-02-28T02:27:58.220Z,49.30
2019-02-28T02:30:31.220Z,27.27
2019-02-28T02:33:04.596Z,23.93
2019-02-28T02:35:42.221Z,30.70
2019-02-28T02:38:16.469Z,31.17
2019-02-28T02:40:49.596Z,19.40
2019-02-28T02:43:23.490Z,35.57
2019-02-28T02:45:56.874Z,31.30
2019-02-28T02:48:29.701Z,29.08
2019-02-28T02:51:02.221Z,21.47
2019-02-28T02:53:41.544Z,16.87
2019-02-28T02:56:14.377Z,23.77
2019-02-28T02:58:48.583Z,22.60
2019-02-28T03:01:23.084Z,33.23
2019-02-28T03:03:57.438Z,34.67
2019-02-28T03:06:30.032Z,33.57
2019-02-28T03:09:04.494Z,36.10
2019-02-28T03:11:37.182Z,26.23
2019-02-28T03:14:09.983Z,25.87
2019-02-28T03:16:42.696Z,20.93
2019-02-28T03:19:16.333Z,29.75
2019-02-28T03:21:52.597Z,19.58
2019-02-28T03:24:26.244Z,42.40
2019-02-28T03:26:58.768Z,63.03
2019-02-28T03:29:31.360Z,67.37
2019-02-28T03:32:05.625Z,53.60
2019-02-28T03:34:38.549Z,42.20
2019-02-28T03:37:11.173Z,45.27
2019-02-28T03:39:44.693Z,24.20
2019-02-28T03:42:17.585Z,20.07
2019-02-28T03:44:56.730Z,33.10
2019-02-28T03:47:30.658Z,29.50
2019-02-28T03:50:05.166Z,36.73
2019-02-28T03:52:42.265Z,40.03
2019-02-28T03:55:16.432Z,25.10
2019-02-28T03:57:50.053Z,42.60
2019-02-28T04:00:22.620Z,52.40
2019-02-28T04:02:58.460Z,68.37
2019-02-28T04:05:32.665Z,45.63
2019-02-28T04:08:05.519Z,82.10
2019-02-28T04:10:38.260Z,48.30
2019-02-28T04:13:11.065Z,74.28
2019-02-28T04:16:01.455Z,72.80
2019-02-28T04:18:46.212Z,62.70
2019-02-28T04:21:19.444Z,88.90
2019-02-28T04:23:52.420Z,47.93
2019-02-28T04:26:24.988Z,66.60
2019-02-28T04:28:57.612Z,71.50
2019-02-28T04:31:30.696Z,50.33
2019-02-28T04:34:04.538Z,37.97
2019-02-28T04:36:37.150Z,87.87
2019-02-28T04:39:12.145Z,80.53
2019-02-28T04:41:44.773Z,46.80
2019-02-28T04:44:18.245Z,53.97
2019-02-28T04:46:51.901Z,41.35
2019-02-28T04:49:24.282Z,62.27
2019-02-28T04:51:56.872Z,51.53
2019-02-28T04:54:30.652Z,59.57
2019-02-28T04:57:03.344Z,44.10
2019-02-28T04:59:36.052Z,84.57
2019-02-28T05:02:09.242Z,62.60
2019-02-28T05:04:42.062Z,76.82
2019-02-28T05:07:16.372Z,59.50
2019-02-28T05:09:49.481Z,75.10
2019-02-28T05:12:22.682Z,64.90
2019-02-28T05:14:58.543Z,72.43
2019-02-28T05:17:35.969Z,91.00
2019-02-28T05:20:10.751Z,113.17
2019-02-28T05:22:45.998Z,132.07
2019-02-28T05:25:19.821Z,144.53
2019-02-28T05:27:53.592Z,140.63
2019-02-28T05:30:27.152Z,136.60
2019-02-28T05:32:59.833Z,97.37
2019-02-28T05:35:32.897Z,89.70
2019-02-28T05:38:05.325Z,132.12
2019-02-28T05:40:41.362Z,125.33
2019-02-28T05:43:14.371Z,60.00
2019-02-28T05:45:49.539Z,96.17
2019-02-28T05:48:23.479Z,146.27
2019-02-28T05:50:56.240Z,145.57
2019-02-28T05:53:28.798Z,87.87
2019-02-28T05:56:01.292Z,152.53
2019-02-28T05:58:36.700Z,82.47
2019-02-28T06:01:11.821Z,154.90
2019-02-28T06:03:46.045Z,145.73
2019-02-28T06:06:20.134Z,140.50
2019-02-28T06:08:54.223Z,104.70
2019-02-28T06:11:26.686Z,120.00
2019-02-28T06:13:59.952Z,111.50
2019-02-28T06:16:33.480Z,102.30
2019-02-28T06:19:08.358Z,88.87
2019-02-28T06:21:41.999Z,84.50
2019-02-28T06:24:15.655Z,100.77
2019-02-28T06:26:48.107Z,113.40
2019-02-28T06:29:21.045Z,75.43
2019-02-28T06:31:53.822Z,64.23
2019-02-28T06:34:26.480Z,117.65
2019-02-28T06:37:03.672Z,124.60
2019-02-28T06:39:39.394Z,127.07
2019-02-28T06:42:13.174Z,121.90
2019-02-28T06:44:47.423Z,111.30
2019-02-28T06:47:20.075Z,112.13
2019-02-28T06:49:52.725Z,111.87
2019-02-28T06:52:27.019Z,116.57
2019-02-28T06:54:59.751Z,66.37
2019-02-28T06:57:33.497Z,108.77
2019-02-28T07:00:13.428Z,101.80
2019-02-28T07:02:46.608Z,85.53
2019-02-28T07:05:24.783Z,82.97
2019-02-28T07:08:00.939Z,94.40
2019-02-28T07:10:34.410Z,98.70
2019-02-28T07:13:07.673Z,86.20
2019-02-28T07:15:41.171Z,86.77
2019-02-28T07:18:13.714Z,78.40
2019-02-28T07:20:48.931Z,85.67
2019-02-28T07:23:22.350Z,82.10
2019-02-28T07:25:55.493Z,80.57
2019-02-28T07:28:28.095Z,83.03
2019-02-28T07:31:02.886Z,76.33
2019-02-28T07:33:41.327Z,73.07
2019-02-28T07:36:18.491Z,65.60
2019-02-28T07:38:53.513Z,71.67
2019-02-28T07:41:36.000Z,72.13
2019-02-28T07:44:12.110Z,69.13
2019-02-28T07:46:47.537Z,73.70
2019-02-28T07:49:21.036Z,77.40
2019-02-28T07:51:56.937Z,71.87
2019-02-28T07:54:31.470Z,81.67
2019-02-28T07:57:09.042Z,69.60
2019-02-28T07:59:43.013Z,68.10
2019-02-28T08:02:17.134Z,66.37
2019-02-28T08:04:50.761Z,67.63
2019-02-28T08:07:27.460Z,67.13
2019-02-28T08:10:00.030Z,67.40
2019-02-28T08:12:34.002Z,81.13
2019-02-28T08:15:14.188Z,71.77
2019-02-28T08:17:49.225Z,67.57
2019-02-28T08:20:23.342Z,58.47
2019-02-28T08:22:57.656Z,60.25
2019-02-28T08:25:30.522Z,58.13
2019-02-28T08:28:03.834Z,60.93
2019-02-28T08:30:37.190Z,61.53
2019-02-28T08:33:10.443Z,62.20
2019-02-28T08:35:48.230Z,60.17
2019-02-28T08:38:23.062Z,57.73
2019-02-28T08:40:58.839Z,63.60
2019-02-28T08:43:32.764Z,58.20
2019-02-28T08:46:10.800Z,56.10
2019-02-28T08:48:47.144Z,53.43
2019-02-28T08:51:23.158Z,55.17
2019-02-28T08:53:58.087Z,57.03
2019-02-28T08:56:32.280Z,54.65
2019-02-28T08:59:11.592Z,55.80
2019-02-28T09:01:46.324Z,52.60
2019-02-28T09:04:20.063Z,53.78
2019-02-28T09:06:54.388Z,56.00
2019-02-28T09:09:34.458Z,56.67
2019-02-28T09:12:09.388Z,50.57
2019-02-28T09:14:42.782Z,52.47
2019-02-28T09:17:19.385Z,49.43
2019-02-28T09:19:55.840Z,53.10
2019-02-28T09:22:28.401Z,52.80
2019-02-28T09:25:02.060Z,50.30
2019-02-28T09:27:39.030Z,49.10
2019-02-28T09:30:26.591Z,49.07
2019-02-28T09:33:09.180Z,52.67
2019-02-28T09:35:46.334Z,50.42
2019-02-28T09:38:19.265Z,45.83
2019-02-28T09:40:51.942Z,46.47
2019-02-28T09:43:27.032Z,51.83
2019-02-28T09:46:02.855Z,45.83
2019-02-28T09:48:37.091Z,49.00
2019-02-28T09:51:11.603Z,47.50
2019-02-28T09:53:47.341Z,47.78
2019-02-28T09:56:22.840Z,44.93
2019-02-28T09:59:00.241Z,49.77
2019-02-28T10:01:36.584Z,43.23
2019-02-28T10:04:12.798Z,48.25
2019-02-28T10:06:48.508Z,46.13
2019-02-28T10:09:24.955Z,44.93
2019-02-28T10:11:58.005Z,42.10
2019-02-28T10:14:30.495Z,47.77
2019-02-28T10:17:07.036Z,47.30
2019-02-28T10:19:45.726Z,43.33
2019-02-28T10:22:19.552Z,46.23
2019-02-28T10:24:53.488Z,46.22
2019-02-28T10:27:27.689Z,49.93
2019-02-28T10:30:00.333Z,45.03
2019-02-28T10:32:35.706Z,50.23
2019-02-28T10:35:10.256Z,49.73
2019-02-28T10:37:43.950Z,45.97
2019-02-28T10:40:23.529Z,47.97
2019-02-28T10:42:56.321Z,47.93
2019-02-28T10:45:31.242Z,48.60
2019-02-28T10:48:04.797Z,45.00
2019-02-28T10:50:37.502Z,45.43
2019-02-28T10:53:11.536Z,48.50
2019-02-28T10:55:46.683Z,46.80
2019-02-28T10:58:21.153Z,47.53
2019-02-28T11:00:58.296Z,43.13
2019-02-28T11:03:32.423Z,50.20
2019-02-28T11:06:06.369Z,45.50
2019-02-28T11:08:44.514Z,45.67
2019-02-28T11:11:21.759Z,46.80
2019-02-28T11:13:59.371Z,44.37
2019-02-28T11:16:33.323Z,41.33
2019-02-28T11:19:06.619Z,42.17
2019-02-28T11:21:40.771Z,41.60
2019-02-28T11:24:13.747Z,46.90
2019-02-28T11:26:46.292Z,43.10
2019-02-28T11:29:19.324Z,46.57
2019-02-28T11:31:54.274Z,45.90
2019-02-28T11:34:30.953Z,47.25
2019-02-28T11:37:05.489Z,41.67
2019-02-28T11:39:42.460Z,51.47
2019-02-28T11:42:16.224Z,48.07
2019-02-28T11:44:53.217Z,48.27
2019-02-28T11:47:25.837Z,56.40
2019-02-28T11:50:03.554Z,51.47
2019-02-28T11:52:37.736Z,54.30
2019-02-28T11:55:11.748Z,49.83
2019-02-28T11:57:44.408Z,49.90
2019-02-28T12:00:23.667Z,52.97
2019-02-28T12:03:00.795Z,48.47
2019-02-28T12:05:35.197Z,52.97
2019-02-28T12:08:10.459Z,55.13
2019-02-28T12:10:43.485Z,55.20
2019-02-28T12:13:19.711Z,52.10
2019-02-28T12:15:56.723Z,55.80
2019-02-28T12:18:31.820Z,52.03
2019-02-28T12:21:07.361Z,57.47
2019-02-28T12:23:41.229Z,53.97
2019-02-28T12:26:17.731Z,51.80
2019-02-28T12:28:57.992Z,56.27
2019-02-28T12:31:35.765Z,59.50
2019-02-28T12:34:15.050Z,59.00
2019-02-28T12:36:51.628Z,59.05
2019-02-28T12:39:24.558Z,55.37
2019-02-28T12:41:59.516Z,55.03
2019-02-28T12:44:33.868Z,58.53
2019-02-28T12:47:07.592Z,55.13
2019-02-28T12:49:44.004Z,55.80
2019-02-28T12:52:17.251Z,50.10
2019-02-28T12:54:50.004Z,45.97
2019-02-28T12:57:26.548Z,47.37
2019-02-28T12:59:59.020Z,42.87
2019-02-28T13:02:33.695Z,43.17
2019-02-28T13:05:14.849Z,43.13
2019-02-28T13:07:49.870Z,47.00
2019-02-28T13:10:27.980Z,43.33
2019-02-28T13:13:07.078Z,45.30
2019-02-28T13:15:45.488Z,52.17
2019-02-28T13:18:20.373Z,51.87
2019-02-28T13:20:53.014Z,49.93
2019-02-28T13:23:27.330Z,51.60
2019-02-28T13:26:00.193Z,62.53
2019-02-28T13:28:33.848Z,75.27
2019-02-28T13:31:09.101Z,71.37
2019-02-28T13:33:52.675Z,67.97
2019-02-28T13:36:26.253Z,78.67
2019-02-28T13:38:59.618Z,76.10
2019-02-28T13:41:32.367Z,72.63
2019-02-28T13:44:06.302Z,68.87
2019-02-28T13:46:39.636Z,75.67
2019-02-28T13:49:15.601Z,80.37
2019-02-28T13:51:49.917Z,76.65
2019-02-28T13:54:23.609Z,83.47
2019-02-28T13:57:00.585Z,82.70
2019-02-28T13:59:37.232Z,79.00
2019-02-28T14:02:13.644Z,82.93
2019-02-28T14:04:46.804Z,83.27
2019-02-28T14:07:20.008Z,86.90
2019-02-28T14:09:56.995Z,87.83
2019-02-28T14:12:33.057Z,88.20
2019-02-28T14:15:10.594Z,86.57
2019-02-28T14:17:48.219Z,85.77
2019-02-28T14:20:24.515Z,79.97
2019-02-28T14:23:02.185Z,78.97
2019-02-28T14:25:36.372Z,74.60
2019-02-28T14:28:14.335Z,69.30
2019-02-28T14:30:46.953Z,66.43
2019-02-28T14:33:22.053Z,74.33
2019-02-28T14:35:54.811Z,70.87
2019-02-28T14:38:29.554Z,64.23
2019-02-28T14:41:07.328Z,63.70
2019-02-28T14:43:40.620Z,61.33
2019-02-28T14:46:18.253Z,62.73
2019-02-28T14:48:55.360Z,62.37
2019-02-28T14:51:29.863Z,57.78
2019-02-28T14:54:04.027Z,65.47
2019-02-28T14:56:42.229Z,62.37
2019-02-28T14:59:19.642Z,56.30
2019-02-28T15:01:54.185Z,58.42
2019-02-28T15:04:31.516Z,55.73
2019-02-28T15:07:08.632Z,51.87
2019-02-28T15:09:42.255Z,57.33
2019-02-28T15:12:15.856Z,56.87
2019-02-28T15:14:51.810Z,51.83
2019-02-28T15:17:25.655Z,48.57
2019-02-28T15:19:58.319Z,43.27
2019-02-28T15:22:31.620Z,39.30
2019-02-28T15:25:07.959Z,42.23
2019-02-28T15:27:40.649Z,41.23
2019-02-28T15:30:24.081Z,39.37
2019-02-28T15:32:58.966Z,44.23
2019-02-28T15:35:33.392Z,40.37
2019-02-28T15:38:09.420Z,37.40
2019-02-28T15:40:44.747Z,36.03
2019-02-28T15:43:18.634Z,36.30
2019-02-28T15:45:51.604Z,39.23
2019-02-28T15:48:41.013Z,34.70
2019-02-28T15:51:13.760Z,34.23
2019-02-28T15:53:49.642Z,37.10
2019-02-28T15:56:23.654Z,33.07
2019-02-28T15:58:59.041Z,33.07
2019-02-28T16:01:34.458Z,31.70
2019-02-28T16:04:09.226Z,29.45
2019-02-28T16:06:45.349Z,30.47
2019-02-28T16:09:21.452Z,29.07
2019-02-28T16:11:55.460Z,28.00
2019-02-28T16:14:31.413Z,30.07
2019-02-28T16:17:08.133Z,23.00
2019-02-28T16:19:40.903Z,25.80
2019-02-28T16:22:18.204Z,26.07
2019-02-28T16:24:53.552Z,20.40
2019-02-28T16:27:29.624Z,24.25
2019-02-28T16:30:32.822Z,20.65
2019-02-28T16:33:08.987Z,21.53
2019-02-28T16:35:46.681Z,24.87
2019-02-28T16:38:23.009Z,22.17
2019-02-28T16:40:57.605Z,21.97
2019-02-28T16:43:36.960Z,22.50
2019-02-28T16:46:15.452Z,18.70
2019-02-28T16:48:49.513Z,22.60
2019-02-28T16:51:43.850Z,20.40
2019-02-28T16:54:19.296Z,18.23
2019-02-28T16:56:55.211Z,17.30
2019-02-28T16:59:31.731Z,21.13
2019-02-28T17:02:08.170Z,19.13
2019-02-28T17:04:41.612Z,19.93
2019-02-28T17:07:16.382Z,17.90
2019-02-28T17:09:49.296Z,23.33
2019-02-28T17:12:29.080Z,18.43
2019-02-28T17:15:23.048Z,13.83
2019-02-28T17:18:08.451Z,17.15
2019-02-28T17:20:53.659Z,16.70
2019-02-28T17:23:29.365Z,19.13
2019-02-28T17:26:02.689Z,19.47
2019-02-28T17:28:41.200Z,13.47
2019-02-28T17:31:36.858Z,14.17
2019-02-28T17:34:13.827Z,18.10
2019-02-28T17:36:48.560Z,17.10
2019-02-28T17:39:24.295Z,15.23
2019-02-28T17:41:56.924Z,13.93
2019-02-28T17:45:10.563Z,16.83
2019-02-28T17:48:14.624Z,19.27
2019-02-28T17:51:03.202Z,15.77
2019-02-28T17:54:08.631Z,18.90
2019-02-28T17:57:29.879Z,17.17
2019-02-28T18:00:53.409Z,18.23
2019-02-28T18:04:16.536Z,18.50
2019-02-28T18:07:45.028Z,20.17
2019-02-28T18:10:48.178Z,21.85
2019-02-28T18:13:55.233Z,18.03
2019-02-28T18:17:16.061Z,19.42
2019-02-28T18:20:33.311Z,15.20
2019-02-28T18:23:52.274Z,19.90
2019-02-28T18:27:12.971Z,22.50
2019-02-28T18:30:37.466Z,18.13
2019-02-28T18:33:22.927Z,20.00
2019-02-28T18:35:56.282Z,20.00
2019-02-28T18:38:30.345Z,16.70
2019-02-28T18:41:05.749Z,14.47
2019-02-28T18:43:42.030Z,17.02
2019-02-28T18:46:29.516Z,19.90
2019-02-28T18:49:04.331Z,19.60
2019-02-28T18:51:38.245Z,20.90
2019-02-28T18:54:12.421Z,17.93
2019-02-28T18:56:45.609Z,21.30
2019-02-28T18:59:23.615Z,20.57
2019-02-28T19:01:56.360Z,21.57
2019-02-28T19:04:29.238Z,26.27
2019-02-28T19:07:01.955Z,20.27
2019-02-28T19:09:36.297Z,18.67
2019-02-28T19:12:28.993Z,19.47
2019-02-28T19:15:05.579Z,19.17
2019-02-28T19:17:41.330Z,19.65
2019-02-28T19:20:15.974Z,20.20
2019-02-28T19:22:50.474Z,18.90
2019-02-28T19:25:24.216Z,18.27
2019-02-28T19:27:57.900Z,14.73
2019-02-28T19:30:32.841Z,20.93
2019-02-28T19:33:07.439Z,22.47
2019-02-28T19:35:41.095Z,25.73
2019-02-28T19:38:16.199Z,21.90
2019-02-28T19:40:55.181Z,27.23
2019-02-28T19:43:36.947Z,22.73
2019-02-28T19:46:14.956Z,22.90
2019-02-28T19:48:48.787Z,25.27
2019-02-28T19:51:24.269Z,30.93
2019-02-28T19:54:00.331Z,28.50
2019-02-28T19:56:34.044Z,27.40
2019-02-28T19:59:07.672Z,23.70
2019-02-28T20:01:41.616Z,23.70
2019-02-28T20:04:15.526Z,25.23
2019-02-28T20:06:51.464Z,22.87
2019-02-28T20:09:24.968Z,17.60
2019-02-28T20:11:58.509Z,17.63
2019-02-28T20:14:32.204Z,22.60
2019-02-28T20:17:05.120Z,19.23
2019-02-28T20:19:40.655Z,20.13
2019-02-28T20:22:14.345Z,22.63
2019-02-28T20:24:47.591Z,22.00
2019-02-28T20:27:25.741Z,22.07
2019-02-28T20:30:04.278Z,20.50
2019-02-28T20:32:38.311Z,19.23
2019-02-28T20:35:12.944Z,21.83
2019-02-28T20:37:45.529Z,17.03
2019-02-28T20:40:19.326Z,17.00
2019-02-28T20:42:54.552Z,22.67
2019-02-28T20:45:27.313Z,23.60
2019-02-28T20:48:00.061Z,19.90
2019-02-28T20:50:39.479Z,22.07
2019-02-28T20:53:14.060Z,23.20
2019-02-28T20:55:48.168Z,26.70
2019-02-28T20:58:23.361Z,24.53
2019-02-28T21:00:58.071Z,25.83
2019-02-28T21:03:31.751Z,24.97
2019-02-28T21:06:10.276Z,28.60
2019-02-28T21:08:45.918Z,25.67
2019-02-28T21:11:19.964Z,27.20
2019-02-28T21:13:55.001Z,27.27
2019-02-28T21:16:28.171Z,29.73
2019-02-28T21:19:01.388Z,31.13
2019-02-28T21:21:36.203Z,27.03
2019-02-28T21:24:09.639Z,28.77
2019-02-28T21:26:43.705Z,30.87
2019-02-28T21:29:19.342Z,27.62
2019-02-28T21:31:51.908Z,28.83
2019-02-28T21:34:26.332Z,29.23
2019-02-28T21:37:00.318Z,31.00
2019-02-28T21:39:35.672Z,29.60
2019-02-28T21:42:10.135Z,32.00
2019-02-28T21:44:43.901Z,33.00
2019-02-28T21:47:17.275Z,35.40
2019-02-28T21:49:52.204Z,38.73
2019-02-28T21:52:26.034Z,36.10
2019-02-28T21:55:00.195Z,35.63
2019-02-28T21:57:36.098Z,41.17
2019-02-28T22:00:21.571Z,48.50
2019-02-28T22:02:54.275Z,44.50
2019-02-28T22:05:29.371Z,50.13
2019-02-28T22:08:04.814Z,46.33
2019-02-28T22:10:37.436Z,52.28
2019-02-28T22:13:11.676Z,48.30
2019-02-28T22:15:45.726Z,48.83
2019-02-28T22:18:21.190Z,43.77
2019-02-28T22:20:55.252Z,49.93
2019-02-28T22:23:31.011Z,43.67
2019-02-28T22:26:05.570Z,43.60
2019-02-28T22:28:39.501Z,40.40
2019-02-28T22:31:26.213Z,40.27
2019-02-28T22:34:07.586Z,42.67
2019-02-28T22:36:42.572Z,36.17
2019-02-28T22:39:15.965Z,37.80
2019-02-28T22:41:49.132Z,38.23
2019-02-28T22:44:22.966Z,35.50
2019-02-28T22:46:56.816Z,34.37
2019-02-28T22:49:33.637Z,34.97
2019-02-28T22:52:07.514Z,40.50
2019-02-28T22:54:41.051Z,37.23
2019-02-28T22:57:14.034Z,36.83
2019-02-28T22:59:47.562Z,33.10
2019-02-28T23:02:20.859Z,36.43
2019-02-28T23:04:56.819Z,30.23
2019-02-28T23:07:30.755Z,26.47
2019-02-28T23:10:05.029Z,28.77
2019-02-28T23:12:40.434Z,28.70
2019-02-28T23:15:14.268Z,26.17
2019-02-28T23:17:49.781Z,23.60
2019-02-28T23:20:23.268Z,23.53
2019-02-28T23:22:56.858Z,20.80
2019-02-28T23:25:29.380Z,20.43
2019-02-28T23:28:14.095Z,18.47
2019-02-28T23:31:46.523Z,14.73
2019-02-28T23:34:30.602Z,13.67
2019-02-28T23:37:05.448Z,17.27
2019-02-28T23:39:38.051Z,16.48
2019-02-28T23:42:12.868Z,14.87
2019-02-28T23:44:46.453Z,13.97
2019-02-28T23:47:18.931Z,15.30
2019-02-28T23:49:51.818Z,14.37
2019-02-28T23:52:24.448Z,18.53
2019-02-28T23:55:05.363Z,15.67
2019-02-28T23:57:38.189Z,15.23
